sensor_id;sensor_type;location;lat;lon;timestamp;P1;durP1;ratioP1;P2;durP2;ratioP2
7817;SDS011;3954;52.624;9.212;2023-02-20T00:01:52;4.03;;;3.17;;
7817;SDS011;3954;52.624;9.212;2023-02-20T00:04:19;4.00;;;3.70;;
7817;SDS011;3954;52.624;9.212;2023-02-20T00:06:45;4.13;;;3.67;;
7817;SDS011;3954;52.624;9.212;2023-02-20T00:09:11;4.22;;;3.75;;
7817;SDS011;3954;52.624;9.212;2023-02-20T00:11:38;4.20;;;3.80;;
7817;SDS011;3954;52.624;9.212;2023-02-20T00:14:04;5.40;;;4.40;;
7817;SDS011;3954;52.624;9.212;2023-02-20T00:16:30;4.97;;;4.20;;
7817;SDS011;3954;52.624;9.212;2023-02-20T00:18:56;4.70;;;4.13;;
7817;SDS011;3954;52.624;9.212;2023-02-20T00:21:23;5.43;;;4.38;;
7817;SDS011;3954;52.624;9.212;2023-02-20T00:23:49;5.93;;;5.18;;
7817;SDS011;3954;52.624;9.212;2023-02-20T00:26:15;5.78;;;5.28;;
7817;SDS011;3954;52.624;9.212;2023-02-20T00:28:42;5.97;;;5.43;;
7817;SDS011;3954;52.624;9.212;2023-02-20T00:31:10;6.22;;;5.63;;
7817;SDS011;3954;52.624;9.212;2023-02-20T00:33:37;6.75;;;6.15;;
7817;SDS011;3954;52.624;9.212;2023-02-20T00:36:03;6.38;;;5.75;;
7817;SDS011;3954;52.624;9.212;2023-02-20T00:38:29;5.90;;;5.25;;
7817;SDS011;3954;52.624;9.212;2023-02-20T00:40:55;5.90;;;5.30;;
7817;SDS011;3954;52.624;9.212;2023-02-20T00:43:21;5.70;;;5.20;;
7817;SDS011;3954;52.624;9.212;2023-02-20T00:45:49;6.15;;;5.60;;
7817;SDS011;3954;52.624;9.212;2023-02-20T00:48:15;6.47;;;5.88;;
7817;SDS011;3954;52.624;9.212;2023-02-20T00:50:41;6.25;;;5.65;;
7817;SDS011;3954;52.624;9.212;2023-02-20T00:53:07;6.82;;;6.10;;
7817;SDS011;3954;52.624;9.212;2023-02-20T00:55:33;6.75;;;6.15;;
7817;SDS011;3954;52.624;9.212;2023-02-20T00:57:59;7.18;;;6.45;;
7817;SDS011;3954;52.624;9.212;2023-02-20T01:00:26;7.75;;;6.93;;
7817;SDS011;3954;52.624;9.212;2023-02-20T01:02:54;7.03;;;6.22;;
7817;SDS011;3954;52.624;9.212;2023-02-20T01:05:20;7.43;;;6.10;;
7817;SDS011;3954;52.624;9.212;2023-02-20T01:07:46;6.88;;;6.18;;
7817;SDS011;3954;52.624;9.212;2023-02-20T01:10:13;6.67;;;5.93;;
7817;SDS011;3954;52.624;9.212;2023-02-20T01:12:39;6.10;;;5.50;;
7817;SDS011;3954;52.624;9.212;2023-02-20T01:15:06;6.27;;;5.67;;
7817;SDS011;3954;52.624;9.212;2023-02-20T01:17:32;5.65;;;5.15;;
7817;SDS011;3954;52.624;9.212;2023-02-20T01:20:00;5.65;;;5.15;;
7817;SDS011;3954;52.624;9.212;2023-02-20T01:22:26;5.78;;;5.28;;
7817;SDS011;3954;52.624;9.212;2023-02-20T01:24:52;6.10;;;5.33;;
7817;SDS011;3954;52.624;9.212;2023-02-20T01:27:17;5.45;;;4.95;;
7817;SDS011;3954;52.624;9.212;2023-02-20T01:29:43;6.40;;;5.53;;
7817;SDS011;3954;52.624;9.212;2023-02-20T01:32:10;5.63;;;5.13;;
7817;SDS011;3954;52.624;9.212;2023-02-20T01:34:36;5.47;;;4.70;;
7817;SDS011;3954;52.624;9.212;2023-02-20T01:37:04;5.70;;;5.20;;
7817;SDS011;3954;52.624;9.212;2023-02-20T01:39:30;6.85;;;5.00;;
7817;SDS011;3954;52.624;9.212;2023-02-20T01:41:56;5.60;;;5.10;;
7817;SDS011;3954;52.624;9.212;2023-02-20T01:44:24;5.80;;;5.30;;
7817;SDS011;3954;52.624;9.212;2023-02-20T01:46:51;5.85;;;5.28;;
7817;SDS011;3954;52.624;9.212;2023-02-20T01:49:19;5.53;;;5.03;;
7817;SDS011;3954;52.624;9.212;2023-02-20T01:51:47;5.30;;;4.80;;
7817;SDS011;3954;52.624;9.212;2023-02-20T01:54:17;5.40;;;4.90;;
7817;SDS011;3954;52.624;9.212;2023-02-20T01:56:43;5.68;;;5.10;;
7817;SDS011;3954;52.624;9.212;2023-02-20T01:59:11;5.70;;;5.20;;
7817;SDS011;3954;52.624;9.212;2023-02-20T02:01:37;6.10;;;5.40;;
7817;SDS011;3954;52.624;9.212;2023-02-20T02:04:03;5.68;;;5.20;;
7817;SDS011;3954;52.624;9.212;2023-02-20T02:06:33;5.60;;;5.10;;
7817;SDS011;3954;52.624;9.212;2023-02-20T02:09:00;5.63;;;5.13;;
7817;SDS011;3954;52.624;9.212;2023-02-20T02:11:28;5.60;;;5.10;;
7817;SDS011;3954;52.624;9.212;2023-02-20T02:13:54;5.97;;;5.20;;
7817;SDS011;3954;52.624;9.212;2023-02-20T02:16:22;6.00;;;5.40;;
7817;SDS011;3954;52.624;9.212;2023-02-20T02:18:54;5.82;;;5.22;;
7817;SDS011;3954;52.624;9.212;2023-02-20T02:21:36;6.40;;;5.30;;
7817;SDS011;3954;52.624;9.212;2023-02-20T02:24:14;5.68;;;5.15;;
7817;SDS011;3954;52.624;9.212;2023-02-20T02:27:05;6.38;;;5.70;;
7817;SDS011;3954;52.624;9.212;2023-02-20T02:29:41;6.05;;;5.45;;
7817;SDS011;3954;52.624;9.212;2023-02-20T02:32:12;6.63;;;6.03;;
7817;SDS011;3954;52.624;9.212;2023-02-20T02:37:33;6.87;;;5.67;;
7817;SDS011;3954;52.624;9.212;2023-02-20T02:40:06;6.32;;;5.57;;
7817;SDS011;3954;52.624;9.212;2023-02-20T02:42:37;6.75;;;6.15;;
7817;SDS011;3954;52.624;9.212;2023-02-20T02:45:09;6.68;;;5.93;;
7817;SDS011;3954;52.624;9.212;2023-02-20T02:47:40;7.03;;;6.43;;
7817;SDS011;3954;52.624;9.212;2023-02-20T02:50:09;6.80;;;6.15;;
7817;SDS011;3954;52.624;9.212;2023-02-20T02:52:38;7.47;;;6.78;;
7817;SDS011;3954;52.624;9.212;2023-02-20T02:55:16;7.72;;;7.03;;
7817;SDS011;3954;52.624;9.212;2023-02-20T02:57:42;7.43;;;6.73;;
7817;SDS011;3954;52.624;9.212;2023-02-20T03:00:09;7.07;;;6.45;;
7817;SDS011;3954;52.624;9.212;2023-02-20T03:02:37;7.72;;;6.93;;
7817;SDS011;3954;52.624;9.212;2023-02-20T03:05:05;7.95;;;7.20;;
7817;SDS011;3954;52.624;9.212;2023-02-20T03:07:35;7.57;;;6.77;;
7817;SDS011;3954;52.624;9.212;2023-02-20T03:10:04;7.72;;;7.03;;
7817;SDS011;3954;52.624;9.212;2023-02-20T03:12:31;8.23;;;7.43;;
7817;SDS011;3954;52.624;9.212;2023-02-20T03:14:59;8.40;;;7.53;;
7817;SDS011;3954;52.624;9.212;2023-02-20T03:17:46;8.88;;;7.97;;
7817;SDS011;3954;52.624;9.212;2023-02-20T03:20:16;8.00;;;7.30;;
7817;SDS011;3954;52.624;9.212;2023-02-20T03:22:43;7.80;;;7.00;;
7817;SDS011;3954;52.624;9.212;2023-02-20T03:25:14;8.73;;;7.82;;
7817;SDS011;3954;52.624;9.212;2023-02-20T03:27:42;8.88;;;7.93;;
7817;SDS011;3954;52.624;9.212;2023-02-20T03:30:10;8.77;;;7.97;;
7817;SDS011;3954;52.624;9.212;2023-02-20T03:32:37;9.20;;;8.20;;
7817;SDS011;3954;52.624;9.212;2023-02-20T03:35:24;9.13;;;8.23;;
7817;SDS011;3954;52.624;9.212;2023-02-20T03:38:09;9.40;;;8.50;;
7817;SDS011;3954;52.624;9.212;2023-02-20T03:40:57;9.07;;;8.23;;
7817;SDS011;3954;52.624;9.212;2023-02-20T03:43:42;9.85;;;8.68;;
7817;SDS011;3954;52.624;9.212;2023-02-20T03:46:10;9.30;;;8.43;;
7817;SDS011;3954;52.624;9.212;2023-02-20T03:48:38;9.63;;;8.73;;
7817;SDS011;3954;52.624;9.212;2023-02-20T03:51:07;9.47;;;8.53;;
7817;SDS011;3954;52.624;9.212;2023-02-20T03:53:52;10.02;;;9.02;;
7817;SDS011;3954;52.624;9.212;2023-02-20T03:56:20;10.13;;;9.13;;
7817;SDS011;3954;52.624;9.212;2023-02-20T03:58:48;10.25;;;9.15;;
7817;SDS011;3954;52.624;9.212;2023-02-20T04:01:15;10.95;;;9.45;;
7817;SDS011;3954;52.624;9.212;2023-02-20T04:03:44;11.40;;;9.50;;
7817;SDS011;3954;52.624;9.212;2023-02-20T04:06:11;10.68;;;9.57;;
7817;SDS011;3954;52.624;9.212;2023-02-20T04:08:41;11.57;;;10.38;;
7817;SDS011;3954;52.624;9.212;2023-02-20T04:11:10;11.55;;;10.35;;
7817;SDS011;3954;52.624;9.212;2023-02-20T04:13:39;11.93;;;10.73;;
7817;SDS011;3954;52.624;9.212;2023-02-20T04:16:05;11.98;;;10.77;;
7817;SDS011;3954;52.624;9.212;2023-02-20T04:18:32;11.85;;;10.60;;
7817;SDS011;3954;52.624;9.212;2023-02-20T04:20:59;12.30;;;11.00;;
7817;SDS011;3954;52.624;9.212;2023-02-20T04:23:26;13.13;;;10.88;;
7817;SDS011;3954;52.624;9.212;2023-02-20T04:25:54;12.18;;;10.93;;
7817;SDS011;3954;52.624;9.212;2023-02-20T04:28:21;12.48;;;10.93;;
7817;SDS011;3954;52.624;9.212;2023-02-20T04:30:49;12.85;;;11.07;;
7817;SDS011;3954;52.624;9.212;2023-02-20T04:33:16;13.43;;;12.02;;
7817;SDS011;3954;52.624;9.212;2023-02-20T04:35:42;13.40;;;11.88;;
7817;SDS011;3954;52.624;9.212;2023-02-20T04:38:08;14.95;;;12.80;;
7817;SDS011;3954;52.624;9.212;2023-02-20T04:40:34;13.98;;;12.52;;
7817;SDS011;3954;52.624;9.212;2023-02-20T04:43:00;13.65;;;12.25;;
7817;SDS011;3954;52.624;9.212;2023-02-20T04:45:26;13.75;;;12.35;;
7817;SDS011;3954;52.624;9.212;2023-02-20T04:47:54;13.98;;;12.57;;
7817;SDS011;3954;52.624;9.212;2023-02-20T04:50:21;12.82;;;11.52;;
7817;SDS011;3954;52.624;9.212;2023-02-20T04:52:47;14.65;;;13.10;;
7817;SDS011;3954;52.624;9.212;2023-02-20T04:55:13;14.52;;;12.50;;
7817;SDS011;3954;52.624;9.212;2023-02-20T04:57:39;14.25;;;12.80;;
7817;SDS011;3954;52.624;9.212;2023-02-20T05:00:06;15.10;;;13.05;;
7817;SDS011;3954;52.624;9.212;2023-02-20T05:02:36;14.13;;;12.73;;
7817;SDS011;3954;52.624;9.212;2023-02-20T05:05:04;14.20;;;12.80;;
7817;SDS011;3954;52.624;9.212;2023-02-20T05:07:31;14.13;;;12.52;;
7817;SDS011;3954;52.624;9.212;2023-02-20T05:09:57;15.40;;;13.48;;
7817;SDS011;3954;52.624;9.212;2023-02-20T05:12:23;13.85;;;12.45;;
7817;SDS011;3954;52.624;9.212;2023-02-20T05:14:49;14.40;;;13.00;;
7817;SDS011;3954;52.624;9.212;2023-02-20T05:17:15;13.98;;;12.52;;
7817;SDS011;3954;52.624;9.212;2023-02-20T05:19:41;15.40;;;12.88;;
7817;SDS011;3954;52.624;9.212;2023-02-20T05:22:09;15.47;;;13.43;;
7817;SDS011;3954;52.624;9.212;2023-02-20T05:24:45;14.90;;;13.40;;
7817;SDS011;3954;52.624;9.212;2023-02-20T05:27:12;16.98;;;13.38;;
7817;SDS011;3954;52.624;9.212;2023-02-20T05:29:44;14.57;;;13.07;;
7817;SDS011;3954;52.624;9.212;2023-02-20T05:32:10;15.00;;;13.50;;
7817;SDS011;3954;52.624;9.212;2023-02-20T05:34:36;15.15;;;12.90;;
7817;SDS011;3954;52.624;9.212;2023-02-20T05:37:02;15.23;;;13.30;;
7817;SDS011;3954;52.624;9.212;2023-02-20T05:39:30;14.98;;;13.18;;
7817;SDS011;3954;52.624;9.212;2023-02-20T05:41:56;14.68;;;12.60;;
7817;SDS011;3954;52.624;9.212;2023-02-20T05:44:22;15.63;;;12.77;;
7817;SDS011;3954;52.624;9.212;2023-02-20T05:46:48;14.93;;;12.07;;
7817;SDS011;3954;52.624;9.212;2023-02-20T05:49:15;14.43;;;12.45;;
7817;SDS011;3954;52.624;9.212;2023-02-20T05:51:41;15.38;;;12.50;;
7817;SDS011;3954;52.624;9.212;2023-02-20T05:54:07;16.58;;;12.68;;
7817;SDS011;3954;52.624;9.212;2023-02-20T05:56:34;15.70;;;12.63;;
7817;SDS011;3954;52.624;9.212;2023-02-20T05:59:00;13.90;;;11.77;;
7817;SDS011;3954;52.624;9.212;2023-02-20T06:01:27;14.35;;;11.68;;
7817;SDS011;3954;52.624;9.212;2023-02-20T06:03:54;20.83;;;14.82;;
7817;SDS011;3954;52.624;9.212;2023-02-20T06:06:20;17.40;;;12.93;;
7817;SDS011;3954;52.624;9.212;2023-02-20T06:08:46;18.52;;;13.20;;
7817;SDS011;3954;52.624;9.212;2023-02-20T06:11:12;15.00;;;12.07;;
7817;SDS011;3954;52.624;9.212;2023-02-20T06:13:40;16.83;;;13.52;;
7817;SDS011;3954;52.624;9.212;2023-02-20T06:16:07;15.27;;;12.40;;
7817;SDS011;3954;52.624;9.212;2023-02-20T06:18:33;17.40;;;14.15;;
7817;SDS011;3954;52.624;9.212;2023-02-20T06:20:59;18.97;;;13.77;;
7817;SDS011;3954;52.624;9.212;2023-02-20T06:23:25;15.43;;;13.13;;
7817;SDS011;3954;52.624;9.212;2023-02-20T06:25:51;14.20;;;12.25;;
7817;SDS011;3954;52.624;9.212;2023-02-20T06:28:17;13.63;;;11.70;;
7817;SDS011;3954;52.624;9.212;2023-02-20T06:30:44;15.30;;;12.30;;
7817;SDS011;3954;52.624;9.212;2023-02-20T06:33:10;18.35;;;13.48;;
7817;SDS011;3954;52.624;9.212;2023-02-20T06:35:36;15.80;;;12.52;;
7817;SDS011;3954;52.624;9.212;2023-02-20T06:38:02;14.57;;;12.80;;
7817;SDS011;3954;52.624;9.212;2023-02-20T06:40:28;17.55;;;13.43;;
7817;SDS011;3954;52.624;9.212;2023-02-20T06:42:54;17.55;;;13.63;;
7817;SDS011;3954;52.624;9.212;2023-02-20T06:45:20;16.93;;;13.30;;
7817;SDS011;3954;52.624;9.212;2023-02-20T06:47:47;16.27;;;14.20;;
7817;SDS011;3954;52.624;9.212;2023-02-20T06:50:13;16.08;;;14.35;;
7817;SDS011;3954;52.624;9.212;2023-02-20T06:52:39;17.90;;;14.73;;
7817;SDS011;3954;52.624;9.212;2023-02-20T06:55:06;18.80;;;14.82;;
7817;SDS011;3954;52.624;9.212;2023-02-20T06:57:32;17.55;;;15.30;;
7817;SDS011;3954;52.624;9.212;2023-02-20T06:59:58;17.02;;;14.73;;
7817;SDS011;3954;52.624;9.212;2023-02-20T07:02:24;18.80;;;15.13;;
7817;SDS011;3954;52.624;9.212;2023-02-20T07:04:51;16.95;;;15.18;;
7817;SDS011;3954;52.624;9.212;2023-02-20T07:07:17;18.08;;;14.88;;
7817;SDS011;3954;52.624;9.212;2023-02-20T07:09:43;17.20;;;14.82;;
7817;SDS011;3954;52.624;9.212;2023-02-20T07:12:09;16.98;;;15.07;;
7817;SDS011;3954;52.624;9.212;2023-02-20T07:14:35;16.58;;;14.90;;
7817;SDS011;3954;52.624;9.212;2023-02-20T07:17:01;17.88;;;14.98;;
7817;SDS011;3954;52.624;9.212;2023-02-20T07:19:27;16.90;;;14.40;;
7817;SDS011;3954;52.624;9.212;2023-02-20T07:21:54;18.58;;;14.52;;
7817;SDS011;3954;52.624;9.212;2023-02-20T07:24:20;15.95;;;14.25;;
7817;SDS011;3954;52.624;9.212;2023-02-20T07:26:46;16.42;;;14.60;;
7817;SDS011;3954;52.624;9.212;2023-02-20T07:29:13;16.80;;;13.82;;
7817;SDS011;3954;52.624;9.212;2023-02-20T07:31:39;17.13;;;14.40;;
7817;SDS011;3954;52.624;9.212;2023-02-20T07:34:05;15.55;;;13.80;;
7817;SDS011;3954;52.624;9.212;2023-02-20T07:36:32;15.15;;;13.65;;
7817;SDS011;3954;52.624;9.212;2023-02-20T07:39:00;16.75;;;14.05;;
7817;SDS011;3954;52.624;9.212;2023-02-20T07:41:27;17.10;;;14.48;;
7817;SDS011;3954;52.624;9.212;2023-02-20T07:43:56;16.73;;;13.90;;
7817;SDS011;3954;52.624;9.212;2023-02-20T07:46:22;18.27;;;14.35;;
7817;SDS011;3954;52.624;9.212;2023-02-20T07:48:48;15.57;;;13.43;;
7817;SDS011;3954;52.624;9.212;2023-02-20T07:51:15;18.88;;;15.75;;
7817;SDS011;3954;52.624;9.212;2023-02-20T07:53:46;15.93;;;14.23;;
7817;SDS011;3954;52.624;9.212;2023-02-20T07:56:13;15.90;;;13.95;;
7817;SDS011;3954;52.624;9.212;2023-02-20T07:58:39;18.63;;;15.23;;
7817;SDS011;3954;52.624;9.212;2023-02-20T08:01:05;15.55;;;13.90;;
7817;SDS011;3954;52.624;9.212;2023-02-20T08:03:31;16.95;;;15.15;;
7817;SDS011;3954;52.624;9.212;2023-02-20T08:05:57;17.48;;;14.38;;
7817;SDS011;3954;52.624;9.212;2023-02-20T08:08:23;16.65;;;14.13;;
7817;SDS011;3954;52.624;9.212;2023-02-20T08:10:49;19.85;;;14.70;;
7817;SDS011;3954;52.624;9.212;2023-02-20T08:13:17;19.20;;;15.50;;
7817;SDS011;3954;52.624;9.212;2023-02-20T08:15:44;19.67;;;15.35;;
7817;SDS011;3954;52.624;9.212;2023-02-20T08:18:12;18.33;;;15.20;;
7817;SDS011;3954;52.624;9.212;2023-02-20T08:20:38;18.33;;;15.50;;
7817;SDS011;3954;52.624;9.212;2023-02-20T08:23:04;20.35;;;16.08;;
7817;SDS011;3954;52.624;9.212;2023-02-20T08:25:30;20.95;;;17.08;;
7817;SDS011;3954;52.624;9.212;2023-02-20T08:27:56;19.23;;;15.93;;
7817;SDS011;3954;52.624;9.212;2023-02-20T08:30:25;18.70;;;16.20;;
7817;SDS011;3954;52.624;9.212;2023-02-20T08:32:51;19.33;;;16.65;;
7817;SDS011;3954;52.624;9.212;2023-02-20T08:35:17;20.08;;;16.75;;
7817;SDS011;3954;52.624;9.212;2023-02-20T08:37:43;20.00;;;17.37;;
7817;SDS011;3954;52.624;9.212;2023-02-20T08:40:10;21.65;;;16.65;;
7817;SDS011;3954;52.624;9.212;2023-02-20T08:42:36;22.85;;;18.60;;
7817;SDS011;3954;52.624;9.212;2023-02-20T08:45:03;23.48;;;18.50;;
7817;SDS011;3954;52.624;9.212;2023-02-20T08:47:30;22.70;;;17.90;;
7817;SDS011;3954;52.624;9.212;2023-02-20T08:49:56;20.50;;;18.10;;
7817;SDS011;3954;52.624;9.212;2023-02-20T08:52:22;25.35;;;19.17;;
7817;SDS011;3954;52.624;9.212;2023-02-20T08:54:48;24.00;;;19.27;;
7817;SDS011;3954;52.624;9.212;2023-02-20T08:57:15;24.02;;;19.27;;
7817;SDS011;3954;52.624;9.212;2023-02-20T08:59:41;24.92;;;19.52;;
7817;SDS011;3954;52.624;9.212;2023-02-20T09:02:07;23.45;;;19.67;;
7817;SDS011;3954;52.624;9.212;2023-02-20T09:04:35;22.73;;;19.55;;
7817;SDS011;3954;52.624;9.212;2023-02-20T09:07:01;25.02;;;20.95;;
7817;SDS011;3954;52.624;9.212;2023-02-20T09:09:27;21.98;;;19.25;;
7817;SDS011;3954;52.624;9.212;2023-02-20T09:11:55;24.40;;;19.90;;
7817;SDS011;3954;52.624;9.212;2023-02-20T09:14:21;24.52;;;20.02;;
7817;SDS011;3954;52.624;9.212;2023-02-20T09:16:50;25.87;;;21.30;;
7817;SDS011;3954;52.624;9.212;2023-02-20T09:19:16;29.08;;;21.73;;
7817;SDS011;3954;52.624;9.212;2023-02-20T09:21:45;28.17;;;22.13;;
7817;SDS011;3954;52.624;9.212;2023-02-20T09:24:11;26.27;;;21.83;;
7817;SDS011;3954;52.624;9.212;2023-02-20T09:26:37;25.08;;;21.33;;
7817;SDS011;3954;52.624;9.212;2023-02-20T09:29:03;30.33;;;23.02;;
7817;SDS011;3954;52.624;9.212;2023-02-20T09:31:29;23.88;;;21.10;;
7817;SDS011;3954;52.624;9.212;2023-02-20T09:33:55;26.92;;;22.27;;
7817;SDS011;3954;52.624;9.212;2023-02-20T09:36:21;25.90;;;22.23;;
7817;SDS011;3954;52.624;9.212;2023-02-20T09:38:49;26.70;;;21.85;;
7817;SDS011;3954;52.624;9.212;2023-02-20T09:41:20;28.85;;;22.70;;
7817;SDS011;3954;52.624;9.212;2023-02-20T09:43:48;26.40;;;21.58;;
7817;SDS011;3954;52.624;9.212;2023-02-20T09:46:17;28.52;;;22.58;;
7817;SDS011;3954;52.624;9.212;2023-02-20T09:48:56;27.95;;;22.15;;
7817;SDS011;3954;52.624;9.212;2023-02-20T09:51:23;25.05;;;22.38;;
7817;SDS011;3954;52.624;9.212;2023-02-20T09:53:53;28.88;;;21.92;;
7817;SDS011;3954;52.624;9.212;2023-02-20T09:56:20;26.17;;;21.55;;
7817;SDS011;3954;52.624;9.212;2023-02-20T09:58:49;24.73;;;21.50;;
7817;SDS011;3954;52.624;9.212;2023-02-20T10:01:19;26.13;;;21.95;;
7817;SDS011;3954;52.624;9.212;2023-02-20T10:03:50;26.58;;;22.10;;
7817;SDS011;3954;52.624;9.212;2023-02-20T10:06:18;26.83;;;21.52;;
7817;SDS011;3954;52.624;9.212;2023-02-20T10:08:46;24.48;;;21.25;;
7817;SDS011;3954;52.624;9.212;2023-02-20T10:11:19;25.88;;;21.92;;
7817;SDS011;3954;52.624;9.212;2023-02-20T10:13:51;27.90;;;22.17;;
7817;SDS011;3954;52.624;9.212;2023-02-20T10:16:21;27.73;;;21.75;;
7817;SDS011;3954;52.624;9.212;2023-02-20T10:18:53;27.75;;;21.42;;
7817;SDS011;3954;52.624;9.212;2023-02-20T10:21:27;28.30;;;21.80;;
7817;SDS011;3954;52.624;9.212;2023-02-20T10:23:55;25.80;;;21.33;;
7817;SDS011;3954;52.624;9.212;2023-02-20T10:26:26;25.38;;;21.75;;
7817;SDS011;3954;52.624;9.212;2023-02-20T10:28:53;25.17;;;20.43;;
7817;SDS011;3954;52.624;9.212;2023-02-20T10:31:24;25.70;;;20.75;;
7817;SDS011;3954;52.624;9.212;2023-02-20T10:33:51;24.77;;;20.63;;
7817;SDS011;3954;52.624;9.212;2023-02-20T10:36:19;24.53;;;20.27;;
7817;SDS011;3954;52.624;9.212;2023-02-20T10:38:49;26.73;;;20.40;;
7817;SDS011;3954;52.624;9.212;2023-02-20T10:41:17;25.13;;;20.48;;
7817;SDS011;3954;52.624;9.212;2023-02-20T10:43:47;25.88;;;20.73;;
7817;SDS011;3954;52.624;9.212;2023-02-20T10:46:16;24.38;;;20.25;;
7817;SDS011;3954;52.624;9.212;2023-02-20T10:48:42;25.38;;;20.10;;
7817;SDS011;3954;52.624;9.212;2023-02-20T10:51:10;25.63;;;19.30;;
7817;SDS011;3954;52.624;9.212;2023-02-20T10:53:39;24.83;;;20.30;;
7817;SDS011;3954;52.624;9.212;2023-02-20T10:56:10;23.77;;;20.55;;
7817;SDS011;3954;52.624;9.212;2023-02-20T10:58:37;24.77;;;19.48;;
7817;SDS011;3954;52.624;9.212;2023-02-20T11:01:07;22.20;;;19.35;;
7817;SDS011;3954;52.624;9.212;2023-02-20T11:03:35;26.53;;;19.07;;
7817;SDS011;3954;52.624;9.212;2023-02-20T11:06:04;23.07;;;18.90;;
7817;SDS011;3954;52.624;9.212;2023-02-20T11:08:31;24.27;;;19.40;;
7817;SDS011;3954;52.624;9.212;2023-02-20T11:10:58;25.02;;;18.35;;
7817;SDS011;3954;52.624;9.212;2023-02-20T11:13:26;23.77;;;18.50;;
7817;SDS011;3954;52.624;9.212;2023-02-20T11:15:53;27.38;;;19.55;;
7817;SDS011;3954;52.624;9.212;2023-02-20T11:18:23;23.42;;;18.05;;
7817;SDS011;3954;52.624;9.212;2023-02-20T11:20:52;25.48;;;18.75;;
7817;SDS011;3954;52.624;9.212;2023-02-20T11:26:16;25.45;;;19.30;;
7817;SDS011;3954;52.624;9.212;2023-02-20T11:28:53;23.40;;;18.67;;
7817;SDS011;3954;52.624;9.212;2023-02-20T11:31:20;23.23;;;18.38;;
7817;SDS011;3954;52.624;9.212;2023-02-20T11:33:48;25.15;;;18.65;;
7817;SDS011;3954;52.624;9.212;2023-02-20T11:36:15;21.90;;;17.50;;
7817;SDS011;3954;52.624;9.212;2023-02-20T11:38:42;22.80;;;18.33;;
7817;SDS011;3954;52.624;9.212;2023-02-20T11:41:13;23.67;;;17.02;;
7817;SDS011;3954;52.624;9.212;2023-02-20T11:43:45;22.15;;;17.58;;
7817;SDS011;3954;52.624;9.212;2023-02-20T11:46:14;24.60;;;18.08;;
7817;SDS011;3954;52.624;9.212;2023-02-20T11:48:56;22.77;;;17.80;;
7817;SDS011;3954;52.624;9.212;2023-02-20T11:51:30;21.30;;;16.92;;
7817;SDS011;3954;52.624;9.212;2023-02-20T11:54:05;24.80;;;17.55;;
7817;SDS011;3954;52.624;9.212;2023-02-20T11:56:31;21.15;;;17.65;;
7817;SDS011;3954;52.624;9.212;2023-02-20T11:59:12;20.90;;;17.47;;
7817;SDS011;3954;52.624;9.212;2023-02-20T12:01:38;23.65;;;17.85;;
7817;SDS011;3954;52.624;9.212;2023-02-20T12:04:12;22.30;;;18.27;;
7817;SDS011;3954;52.624;9.212;2023-02-20T12:06:42;21.63;;;17.55;;
7817;SDS011;3954;52.624;9.212;2023-02-20T12:09:10;25.27;;;17.38;;
7817;SDS011;3954;52.624;9.212;2023-02-20T12:11:36;23.55;;;17.73;;
7817;SDS011;3954;52.624;9.212;2023-02-20T12:14:05;21.40;;;17.13;;
7817;SDS011;3954;52.624;9.212;2023-02-20T12:16:49;20.87;;;16.77;;
7817;SDS011;3954;52.624;9.212;2023-02-20T12:19:21;22.48;;;16.20;;
7817;SDS011;3954;52.624;9.212;2023-02-20T12:21:54;20.83;;;16.33;;
7817;SDS011;3954;52.624;9.212;2023-02-20T12:24:29;22.52;;;17.17;;
7817;SDS011;3954;52.624;9.212;2023-02-20T12:26:59;20.90;;;16.60;;
7817;SDS011;3954;52.624;9.212;2023-02-20T12:29:36;21.27;;;16.45;;
7817;SDS011;3954;52.624;9.212;2023-02-20T12:32:08;21.00;;;17.15;;
7817;SDS011;3954;52.624;9.212;2023-02-20T12:34:40;19.07;;;15.87;;
7817;SDS011;3954;52.624;9.212;2023-02-20T12:37:12;17.33;;;15.55;;
7817;SDS011;3954;52.624;9.212;2023-02-20T12:39:43;19.42;;;15.60;;
7817;SDS011;3954;52.624;9.212;2023-02-20T12:42:13;18.77;;;15.70;;
7817;SDS011;3954;52.624;9.212;2023-02-20T12:44:53;19.15;;;15.50;;
7817;SDS011;3954;52.624;9.212;2023-02-20T12:47:24;17.07;;;14.97;;
7817;SDS011;3954;52.624;9.212;2023-02-20T12:49:54;19.42;;;15.43;;
7817;SDS011;3954;52.624;9.212;2023-02-20T12:52:33;17.65;;;14.90;;
7817;SDS011;3954;52.624;9.212;2023-02-20T12:55:04;17.00;;;14.18;;
7817;SDS011;3954;52.624;9.212;2023-02-20T12:57:35;16.63;;;13.73;;
7817;SDS011;3954;52.624;9.212;2023-02-20T13:00:06;17.25;;;14.13;;
7817;SDS011;3954;52.624;9.212;2023-02-20T13:02:34;15.73;;;14.02;;
7817;SDS011;3954;52.624;9.212;2023-02-20T13:05:02;15.23;;;12.95;;
7817;SDS011;3954;52.624;9.212;2023-02-20T13:07:32;14.85;;;13.10;;
7817;SDS011;3954;52.624;9.212;2023-02-20T13:10:01;17.35;;;14.50;;
7817;SDS011;3954;52.624;9.212;2023-02-20T13:12:28;17.42;;;14.10;;
7817;SDS011;3954;52.624;9.212;2023-02-20T13:14:56;18.45;;;13.23;;
7817;SDS011;3954;52.624;9.212;2023-02-20T13:17:25;15.40;;;12.80;;
7817;SDS011;3954;52.624;9.212;2023-02-20T13:19:55;17.15;;;13.35;;
7817;SDS011;3954;52.624;9.212;2023-02-20T13:22:24;16.65;;;13.32;;
7817;SDS011;3954;52.624;9.212;2023-02-20T13:24:50;15.73;;;13.38;;
7817;SDS011;3954;52.624;9.212;2023-02-20T13:27:26;14.80;;;13.00;;
7817;SDS011;3954;52.624;9.212;2023-02-20T13:29:56;15.55;;;13.07;;
7817;SDS011;3954;52.624;9.212;2023-02-20T13:32:24;14.85;;;13.25;;
7817;SDS011;3954;52.624;9.212;2023-02-20T13:34:50;19.27;;;13.45;;
7817;SDS011;3954;52.624;9.212;2023-02-20T13:40:11;14.65;;;12.82;;
7817;SDS011;3954;52.624;9.212;2023-02-20T13:45:38;14.60;;;13.10;;
7817;SDS011;3954;52.624;9.212;2023-02-20T13:53:39;15.63;;;11.90;;
7817;SDS011;3954;52.624;9.212;2023-02-20T13:56:12;13.85;;;12.10;;
7817;SDS011;3954;52.624;9.212;2023-02-20T13:58:39;15.25;;;11.88;;
7817;SDS011;3954;52.624;9.212;2023-02-20T14:01:05;14.17;;;12.23;;
7817;SDS011;3954;52.624;9.212;2023-02-20T14:03:33;16.08;;;12.60;;
7817;SDS011;3954;52.624;9.212;2023-02-20T14:06:03;15.68;;;12.80;;
7817;SDS011;3954;52.624;9.212;2023-02-20T14:08:30;14.00;;;12.52;;
7817;SDS011;3954;52.624;9.212;2023-02-20T14:11:02;14.70;;;13.20;;
7817;SDS011;3954;52.624;9.212;2023-02-20T14:13:30;14.00;;;12.00;;
7817;SDS011;3954;52.624;9.212;2023-02-20T14:15:57;12.90;;;11.60;;
7817;SDS011;3954;52.624;9.212;2023-02-20T14:18:24;13.33;;;11.40;;
7817;SDS011;3954;52.624;9.212;2023-02-20T14:20:50;12.80;;;11.50;;
7817;SDS011;3954;52.624;9.212;2023-02-20T14:23:23;12.25;;;11.00;;
7817;SDS011;3954;52.624;9.212;2023-02-20T14:25:56;13.52;;;11.15;;
7817;SDS011;3954;52.624;9.212;2023-02-20T14:28:22;13.05;;;11.40;;
7817;SDS011;3954;52.624;9.212;2023-02-20T14:31:02;12.27;;;11.00;;
7817;SDS011;3954;52.624;9.212;2023-02-20T14:33:29;12.70;;;11.40;;
7817;SDS011;3954;52.624;9.212;2023-02-20T14:35:58;16.17;;;11.37;;
7817;SDS011;3954;52.624;9.212;2023-02-20T14:38:29;13.50;;;11.73;;
7817;SDS011;3954;52.624;9.212;2023-02-20T14:40:59;14.88;;;11.65;;
7817;SDS011;3954;52.624;9.212;2023-02-20T14:43:25;13.35;;;11.95;;
7817;SDS011;3954;52.624;9.212;2023-02-20T14:45:58;13.63;;;11.80;;
7817;SDS011;3954;52.624;9.212;2023-02-20T14:48:27;12.53;;;11.23;;
7817;SDS011;3954;52.624;9.212;2023-02-20T14:51:04;13.15;;;11.73;;
7817;SDS011;3954;52.624;9.212;2023-02-20T14:53:33;12.80;;;10.93;;
7817;SDS011;3954;52.624;9.212;2023-02-20T14:56:07;13.05;;;11.02;;
7817;SDS011;3954;52.624;9.212;2023-02-20T14:58:34;11.95;;;10.75;;
7817;SDS011;3954;52.624;9.212;2023-02-20T15:01:02;12.40;;;11.10;;
7817;SDS011;3954;52.624;9.212;2023-02-20T15:03:39;12.88;;;10.77;;
7817;SDS011;3954;52.624;9.212;2023-02-20T15:06:05;12.95;;;10.98;;
7817;SDS011;3954;52.624;9.212;2023-02-20T15:08:32;12.52;;;11.05;;
7817;SDS011;3954;52.624;9.212;2023-02-20T15:11:04;12.38;;;11.02;;
7817;SDS011;3954;52.624;9.212;2023-02-20T15:13:33;11.45;;;10.25;;
7817;SDS011;3954;52.624;9.212;2023-02-20T15:16:04;12.40;;;10.13;;
7817;SDS011;3954;52.624;9.212;2023-02-20T15:18:31;11.52;;;10.32;;
7817;SDS011;3954;52.624;9.212;2023-02-20T15:20:59;14.23;;;10.00;;